Time;durP1;ratioP1;P1;durP2;ratioP2;P2;SDS_P1;SDS_P2;PMS_P1;PMS_P2;Temp;Humidity;BMP_temperature;BMP_pressure;BME280_temperature;BME280_humidity;BME280_pressure;Samples;Min_cycle;Max_cycle;Signal;HPM_P1;HPM_P2
2021/11/29 00:00:50;;;;;;;5.93;2.08;;;;;;;;;;4877407;29;20053;-67
2021/11/29 00:03:29;;;;;;;6.97;2.30;;;;;;;;;;4877019;29;20057;-71
2021/11/29 00:06:00;;;;;;;7.45;2.40;;;;;;;;;;4877409;29;20107;-67
2021/11/29 00:08:32;;;;;;;7.32;2.42;;;;;;;;;;4902888;29;20078;-68
2021/11/29 00:11:03;;;;;;;7.40;3.53;;;;;;;;;;4915089;29;20779;-67
2021/11/29 00:13:33;;;;;;;6.38;2.20;;;;;;;;;;4908383;29;20059;-66
2021/11/29 00:16:05;;;;;;;12.70;2.97;;;;;;;;;;4903282;29;20064;-66
2021/11/29 00:18:36;;;;;;;;;;;;;;;;;;4881676;29;20056;-68
2021/11/29 00:21:07;;;;;;;9.15;3.00;;;;;;;;;;4896512;29;19923;-67
2021/11/29 00:23:38;;;;;;;5.95;2.35;;;;;;;;;;4924072;29;20092;-67
2021/11/29 00:26:08;;;;;;;8.18;2.15;;;;;;;;;;4939572;29;20424;-68
2021/11/29 00:28:43;;;;;;;5.65;2.20;;;;;;;;;;4952533;29;20047;-67
2021/11/29 00:31:15;;;;;;;5.82;2.42;;;;;;;;;;4972328;28;20062;-67
2021/11/29 00:33:46;;;;;;;9.20;2.33;;;;;;;;;;4990441;28;20550;-68
2021/11/29 00:36:16;;;;;;;4.72;2.15;;;;;;;;;;4990055;28;20171;-67
2021/11/29 00:38:47;;;;;;;5.90;1.98;;;;;;;;;;4981706;28;20061;-68
2021/11/29 00:41:20;;;;;;;9.77;2.72;;;;;;;;;;4990937;28;20646;-67
2021/11/29 00:43:51;;;;;;;7.50;2.78;;;;;;;;;;4959934;28;20404;-68
2021/11/29 00:46:24;;;;;;;8.15;3.03;;;;;;;;;;4967134;28;20074;-67
2021/11/29 00:48:59;;;;;;;7.30;2.92;;;;;;;;;;4951918;28;20423;-67
2021/11/29 00:51:30;;;;;;;9.48;3.40;;;;;;;;;;4940608;29;20058;-69
2021/11/29 00:54:01;;;;;;;13.40;3.70;;;;;;;;;;4932762;29;20059;-68
2021/11/29 00:56:32;;;;;;;10.25;3.40;;;;;;;;;;4914039;29;20098;-66
2021/11/29 00:59:04;;;;;;;12.63;3.75;;;;;;;;;;4895224;29;20402;-67
2021/11/29 01:01:36;;;;;;;10.45;3.53;;;;;;;;;;4883810;29;20060;-67
2021/11/29 01:04:11;;;;;;;12.15;3.65;;;;;;;;;;4910425;29;20053;-69
2021/11/29 01:06:44;;;;;;;7.35;3.15;;;;;;;;;;4864318;29;20060;-67
2021/11/29 01:09:22;;;;;;;8.80;3.38;;;;;;;;;;4840237;29;20102;-67
2021/11/29 01:11:59;;;;;;;8.75;3.60;;;;;;;;;;4888932;29;20509;-66
2021/11/29 01:14:29;;;;;;;8.65;3.47;;;;;;;;;;4865043;29;20508;-66
2021/11/29 01:17:03;;;;;;;10.23;3.42;;;;;;;;;;4872317;29;20053;-67
2021/11/29 01:19:37;;;;;;;11.13;3.55;;;;;;;;;;4877233;29;20057;-68
2021/11/29 01:22:08;;;;;;;6.10;2.78;;;;;;;;;;4875646;29;20049;-69
2021/11/29 01:24:38;;;;;;;9.57;2.85;;;;;;;;;;4877894;29;20064;-67
2021/11/29 01:27:10;;;;;;;9.95;3.17;;;;;;;;;;4881508;29;20056;-67
2021/11/29 01:29:43;;;;;;;7.05;3.40;;;;;;;;;;4875831;29;20663;-66
2021/11/29 01:32:15;;;;;;;9.82;3.13;;;;;;;;;;4889149;29;20117;-71
2021/11/29 01:34:49;;;;;;;10.55;3.47;;;;;;;;;;4894468;29;20057;-67
2021/11/29 01:37:20;;;;;;;9.15;2.95;;;;;;;;;;4894526;29;20068;-68
2021/11/29 01:39:52;;;;;;;9.65;2.90;;;;;;;;;;4894491;29;20052;-67
2021/11/29 01:42:24;;;;;;;6.32;3.03;;;;;;;;;;4894201;29;20060;-68
2021/11/29 01:44:57;;;;;;;12.65;3.17;;;;;;;;;;4905101;29;20060;-66
2021/11/29 01:47:45;;;;;;;7.97;3.35;;;;;;;;;;4911429;29;20394;-67
2021/11/29 01:50:22;;;;;;;5.85;2.65;;;;;;;;;;4894294;29;20053;-66
2021/11/29 01:52:55;;;;;;;6.65;2.90;;;;;;;;;;4890033;29;20053;-67
2021/11/29 01:55:26;;;;;;;6.32;2.92;;;;;;;;;;4909076;29;20071;-66
2021/11/29 01:57:57;;;;;;;7.60;2.60;;;;;;;;;;4931990;29;20052;-66
2021/11/29 02:00:38;;;;;;;8.55;3.30;;;;;;;;;;4898524;29;20056;-66
2021/11/29 02:03:17;;;;;;;7.03;2.92;;;;;;;;;;4896234;29;20068;-67
2021/11/29 02:05:47;;;;;;;9.63;3.00;;;;;;;;;;4846704;29;20067;-66
2021/11/29 02:08:19;;;;;;;8.32;3.35;;;;;;;;;;4875443;29;20057;-68
2021/11/29 02:10:52;;;;;;;8.05;3.65;;;;;;;;;;4890582;29;20524;-67
2021/11/29 02:13:28;;;;;;;8.80;3.03;;;;;;;;;;4874977;29;20111;-69
2021/11/29 02:16:04;;;;;;;7.15;3.05;;;;;;;;;;4873322;29;20060;-68
2021/11/29 02:18:40;;;;;;;9.00;3.05;;;;;;;;;;4893597;29;20497;-67
2021/11/29 02:21:30;;;;;;;7.10;2.83;;;;;;;;;;4875513;29;20057;-66
2021/11/29 02:24:24;;;;;;;11.52;3.40;;;;;;;;;;4893186;29;20469;-69
2021/11/29 02:27:02;;;;;;;8.30;3.60;;;;;;;;;;4930733;29;20058;-70
2021/11/29 02:29:41;;;;;;;8.38;3.70;;;;;;;;;;4931665;29;20102;-67
2021/11/29 02:32:22;;;;;;;9.68;2.92;;;;;;;;;;4934119;29;20060;-66
2021/11/29 02:34:56;;;;;;;7.18;2.75;;;;;;;;;;4942543;29;20532;-66
2021/11/29 02:37:28;;;;;;;6.25;2.40;;;;;;;;;;4942230;29;20063;-67
2021/11/29 02:39:59;;;;;;;6.70;2.17;;;;;;;;;;4946700;29;20062;-67
2021/11/29 02:42:30;;;;;;;5.82;2.33;;;;;;;;;;4911953;29;20059;-66
2021/11/29 02:45:00;;;;;;;4.88;1.73;;;;;;;;;;4927433;29;20059;-68
2021/11/29 02:47:31;;;;;;;5.95;1.67;;;;;;;;;;4943366;28;20111;-67
2021/11/29 02:50:02;;;;;;;7.20;2.47;;;;;;;;;;4950048;28;20562;-66
2021/11/29 02:52:32;;;;;;;5.72;1.67;;;;;;;;;;4930592;29;20051;-67
2021/11/29 02:55:04;;;;;;;5.38;1.58;;;;;;;;;;4922746;29;20048;-67
2021/11/29 02:57:35;;;;;;;9.00;1.83;;;;;;;;;;4864002;29;20072;-66
2021/11/29 03:00:08;;;;;;;5.32;1.90;;;;;;;;;;4871738;29;20053;-66
2021/11/29 03:02:39;;;;;;;3.95;1.60;;;;;;;;;;4878693;29;20059;-67
2021/11/29 03:05:10;;;;;;;4.93;2.08;;;;;;;;;;4910501;29;20068;-67
2021/11/29 03:07:41;;;;;;;7.43;1.90;;;;;;;;;;4915992;29;20056;-69
2021/11/29 03:10:17;;;;;;;3.88;1.75;;;;;;;;;;4915873;29;20512;-67
2021/11/29 03:12:47;;;;;;;7.50;1.55;;;;;;;;;;4892106;29;20061;-67
2021/11/29 03:15:18;;;;;;;8.57;1.85;;;;;;;;;;4878435;29;20045;-66
2021/11/29 03:17:48;;;;;;;4.88;1.80;;;;;;;;;;4868150;29;20065;-67
2021/11/29 03:20:22;;;;;;;5.38;1.90;;;;;;;;;;4859724;29;20069;-68
2021/11/29 03:23:22;;;;;;;6.68;1.80;;;;;;;;;;4859831;29;20550;-67
2021/11/29 03:25:53;;;;;;;3.72;1.45;;;;;;;;;;4882003;29;20060;-68
2021/11/29 03:28:24;;;;;;;5.00;1.70;;;;;;;;;;4926703;29;20056;-67
2021/11/29 03:30:55;;;;;;;6.38;2.05;;;;;;;;;;4930756;29;20411;-67
2021/11/29 03:33:26;;;;;;;4.13;1.65;;;;;;;;;;4930592;29;20663;-66
2021/11/29 03:35:56;;;;;;;5.53;1.95;;;;;;;;;;4934429;29;20059;-66
2021/11/29 03:38:52;;;;;;;5.53;1.52;;;;;;;;;;4934379;29;20051;-67
2021/11/29 03:41:27;;;;;;;6.00;1.98;;;;;;;;;;4916871;29;20405;-68
2021/11/29 03:44:10;;;;;;;7.47;1.80;;;;;;;;;;4934069;29;20055;-68
2021/11/29 03:46:44;;;;;;;6.32;2.30;;;;;;;;;;4934112;29;20439;-67
2021/11/29 03:49:18;;;;;;;6.10;1.70;;;;;;;;;;4914952;29;20052;-67
2021/11/29 03:51:49;;;;;;;7.43;1.80;;;;;;;;;;4911333;29;20049;-66
2021/11/29 03:54:19;;;;;;;6.35;1.50;;;;;;;;;;4895870;29;20053;-67
2021/11/29 03:57:02;;;;;;;6.60;1.67;;;;;;;;;;4896231;29;20517;-68
2021/11/29 03:59:47;;;;;;;7.53;1.70;;;;;;;;;;4895579;29;20053;-67
2021/11/29 04:02:27;;;;;;;4.50;1.48;;;;;;;;;;4895906;29;20057;-68
2021/11/29 04:05:09;;;;;;;4.90;1.75;;;;;;;;;;4898087;29;20060;-66
2021/11/29 04:07:39;;;;;;;10.77;3.30;;;;;;;;;;4914602;29;20083;-70
2021/11/29 04:10:12;;;;;;;7.65;2.15;;;;;;;;;;4910486;29;20645;-67
2021/11/29 04:12:58;;;;;;;5.57;2.10;;;;;;;;;;4907610;29;20063;-68
2021/11/29 04:15:49;;;;;;;5.63;2.17;;;;;;;;;;4889354;29;20061;-67
2021/11/29 04:18:41;;;;;;;7.30;2.10;;;;;;;;;;4895121;29;20052;-69
2021/11/29 04:21:14;;;;;;;6.25;1.80;;;;;;;;;;4847071;29;20049;-67
2021/11/29 04:23:48;;;;;;;8.13;2.10;;;;;;;;;;4864673;29;20062;-70
2021/11/29 04:26:19;;;;;;;9.70;2.20;;;;;;;;;;4839180;29;20095;-68
2021/11/29 04:28:51;;;;;;;8.38;3.05;;;;;;;;;;4865402;29;20058;-70
2021/11/29 04:31:22;;;;;;;9.77;2.47;;;;;;;;;;4825724;29;20066;-67
2021/11/29 04:33:52;;;;;;;7.18;2.53;;;;;;;;;;4844707;29;20586;-68
2021/11/29 04:36:23;;;;;;;9.52;2.70;;;;;;;;;;4858531;29;20057;-68
2021/11/29 04:38:53;;;;;;;7.03;2.85;;;;;;;;;;4858386;29;20438;-68
2021/11/29 04:41:23;;;;;;;7.78;2.63;;;;;;;;;;4858359;29;20073;-67
2021/11/29 04:43:53;;;;;;;5.60;2.60;;;;;;;;;;4803420;29;20055;-69
2021/11/29 04:46:24;;;;;;;9.90;3.53;;;;;;;;;;4786167;29;20556;-68
2021/11/29 04:48:55;;;;;;;11.05;3.75;;;;;;;;;;4836203;29;20058;-69
2021/11/29 04:51:25;;;;;;;7.85;3.22;;;;;;;;;;4840078;29;20471;-67
2021/11/29 04:53:56;;;;;;;6.78;2.80;;;;;;;;;;4824288;29;20504;-68
2021/11/29 04:56:27;;;;;;;8.50;3.22;;;;;;;;;;4817896;29;20055;-67
2021/11/29 04:58:57;;;;;;;6.47;2.63;;;;;;;;;;4839127;29;20061;-67
2021/11/29 05:01:28;;;;;;;7.78;2.47;;;;;;;;;;4933055;29;20052;-67
2021/11/29 05:03:58;;;;;;;4.13;2.10;;;;;;;;;;4952168;28;20055;-67
2021/11/29 05:06:29;;;;;;;8.90;2.78;;;;;;;;;;4961678;28;20062;-67
2021/11/29 05:09:00;;;;;;;7.85;2.45;;;;;;;;;;4971562;28;20061;-68
2021/11/29 05:11:30;;;;;;;10.98;2.72;;;;;;;;;;4936455;28;20439;-68
2021/11/29 05:14:01;;;;;;;6.50;3.10;;;;;;;;;;4932682;29;20052;-67
2021/11/29 05:16:32;;;;;;;8.73;2.65;;;;;;;;;;4940979;28;20533;-68
2021/11/29 05:19:03;;;;;;;7.20;2.90;;;;;;;;;;4951685;28;20059;-68
2021/11/29 05:21:34;;;;;;;9.60;2.78;;;;;;;;;;4904396;29;20079;-68
2021/11/29 05:24:05;;;;;;;10.68;3.53;;;;;;;;;;4864139;29;20803;-67
2021/11/29 05:26:36;;;;;;;8.65;3.95;;;;;;;;;;4909269;29;20071;-69
2021/11/29 05:29:06;;;;;;;11.00;3.75;;;;;;;;;;4913526;29;20435;-67
2021/11/29 05:31:36;;;;;;;12.75;3.58;;;;;;;;;;4922959;29;20408;-68
2021/11/29 05:34:07;;;;;;;10.65;3.58;;;;;;;;;;4903725;29;20544;-67
2021/11/29 05:36:38;;;;;;;7.25;3.45;;;;;;;;;;4894451;29;20478;-67
2021/11/29 05:39:09;;;;;;;7.38;2.60;;;;;;;;;;4903519;29;20056;-68
2021/11/29 05:41:39;;;;;;;4.85;2.47;;;;;;;;;;4894122;29;20057;-67
2021/11/29 05:44:09;;;;;;;6.03;2.50;;;;;;;;;;4912974;29;20056;-68
2021/11/29 05:46:41;;;;;;;9.30;2.72;;;;;;;;;;4913146;29;20055;-67
2021/11/29 05:49:12;;;;;;;8.73;2.80;;;;;;;;;;4890318;29;20056;-67
2021/11/29 05:51:42;;;;;;;8.00;3.38;;;;;;;;;;4875835;29;20068;-67
2021/11/29 05:54:12;;;;;;;7.90;3.67;;;;;;;;;;4890573;29;20558;-67
2021/11/29 05:56:43;;;;;;;6.22;2.55;;;;;;;;;;4890516;29;20048;-68
2021/11/29 05:59:14;;;;;;;9.25;3.42;;;;;;;;;;4922015;29;20555;-68
2021/11/29 06:01:44;;;;;;;8.25;3.75;;;;;;;;;;4916585;29;20055;-67
2021/11/29 06:04:14;;;;;;;6.50;3.00;;;;;;;;;;4931672;29;20081;-68
2021/11/29 06:06:45;;;;;;;7.78;3.63;;;;;;;;;;4912746;29;20496;-67
2021/11/29 06:09:17;;;;;;;8.95;3.53;;;;;;;;;;4931399;29;20064;-68
2021/11/29 06:11:48;;;;;;;10.10;4.13;;;;;;;;;;4902934;29;20401;-67
2021/11/29 06:14:19;;;;;;;14.05;3.95;;;;;;;;;;4893949;29;20056;-67
2021/11/29 06:16:50;;;;;;;11.40;3.85;;;;;;;;;;4893776;29;20048;-67
2021/11/29 06:19:21;;;;;;;9.00;3.72;;;;;;;;;;4875347;29;20081;-68
2021/11/29 06:21:52;;;;;;;11.23;4.28;;;;;;;;;;4875286;29;20065;-68
2021/11/29 06:24:22;;;;;;;12.88;4.10;;;;;;;;;;4856521;29;20419;-67
2021/11/29 06:26:52;;;;;;;8.18;3.65;;;;;;;;;;4856733;29;20061;-67
2021/11/29 06:29:23;;;;;;;9.40;3.75;;;;;;;;;;4890104;29;20531;-67
2021/11/29 06:31:56;;;;;;;8.85;3.55;;;;;;;;;;4884374;29;20415;-68
2021/11/29 06:34:26;;;;;;;10.35;3.20;;;;;;;;;;4884050;29;20049;-68
2021/11/29 06:36:58;;;;;;;7.47;3.10;;;;;;;;;;4940684;28;20055;-68
2021/11/29 06:39:30;;;;;;;5.97;2.42;;;;;;;;;;4950466;28;20055;-68
2021/11/29 06:42:01;;;;;;;6.75;2.60;;;;;;;;;;4944803;28;20407;-67
2021/11/29 06:44:31;;;;;;;4.15;1.88;;;;;;;;;;4937869;28;20059;-67
2021/11/29 06:47:02;;;;;;;9.38;3.53;;;;;;;;;;4978396;28;20054;-67
2021/11/29 06:49:35;;;;;;;4.13;1.58;;;;;;;;;;4969728;28;20102;-70
2021/11/29 06:52:06;;;;;;;4.65;1.52;;;;;;;;;;4950360;29;20055;-68
2021/11/29 06:54:37;;;;;;;4.78;1.30;;;;;;;;;;4958896;28;20050;-68
2021/11/29 06:57:09;;;;;;;4.25;1.58;;;;;;;;;;4939938;29;20047;-68
2021/11/29 06:59:39;;;;;;;6.53;1.35;;;;;;;;;;4931417;29;20048;-67
2021/11/29 07:02:11;;;;;;;5.93;1.90;;;;;;;;;;4939967;29;20070;-68
2021/11/29 07:04:41;;;;;;;6.03;1.60;;;;;;;;;;4893204;29;20061;-69
2021/11/29 07:07:11;;;;;;;5.95;1.80;;;;;;;;;;4920249;29;20060;-69
2021/11/29 07:09:42;;;;;;;5.63;2.00;;;;;;;;;;4930562;29;20051;-68
2021/11/29 07:12:15;;;;;;;7.93;3.72;;;;;;;;;;4911797;29;20060;-68
2021/11/29 07:14:45;;;;;;;16.30;4.93;;;;;;;;;;4912431;29;20052;-67
2021/11/29 07:17:16;;;;;;;12.18;4.63;;;;;;;;;;4912263;29;20048;-67
2021/11/29 07:19:50;;;;;;;7.45;3.22;;;;;;;;;;4892771;29;20057;-68
2021/11/29 07:22:24;;;;;;;11.35;3.00;;;;;;;;;;4893228;29;20061;-68
2021/11/29 07:24:55;;;;;;;7.53;2.65;;;;;;;;;;4893350;29;21126;-68
2021/11/29 07:27:26;;;;;;;6.82;2.35;;;;;;;;;;4893478;29;20539;-68
2021/11/29 07:29:56;;;;;;;4.82;2.15;;;;;;;;;;4882603;29;20060;-67
2021/11/29 07:32:29;;;;;;;4.68;1.90;;;;;;;;;;4911840;29;20048;-68
2021/11/29 07:35:00;;;;;;;5.65;1.65;;;;;;;;;;4884668;29;20048;-67
2021/11/29 07:37:30;;;;;;;4.97;1.85;;;;;;;;;;4893395;29;20061;-68
2021/11/29 07:40:03;;;;;;;5.95;1.45;;;;;;;;;;4903381;29;20059;-67
2021/11/29 07:42:33;;;;;;;;;;;;;;;;;;4874737;29;20053;-68
2021/11/29 07:45:07;;;;;;;5.82;1.98;;;;;;;;;;4849389;29;20073;-69
2021/11/29 07:47:37;;;;;;;3.78;1.77;;;;;;;;;;4819153;29;20062;-68
2021/11/29 07:50:10;;;;;;;4.68;1.70;;;;;;;;;;4842539;29;20562;-67
2021/11/29 07:52:43;;;;;;;6.40;2.55;;;;;;;;;;4896481;29;20056;-68
2021/11/29 07:55:16;;;;;;;6.88;2.20;;;;;;;;;;4911456;29;20532;-68
2021/11/29 07:57:46;;;;;;;6.03;1.88;;;;;;;;;;4915207;29;20056;-67
2021/11/29 08:00:21;;;;;;;5.82;2.15;;;;;;;;;;4914719;29;20512;-68
2021/11/29 08:02:55;;;;;;;7.32;2.45;;;;;;;;;;4915022;29;20056;-68
2021/11/29 08:05:29;;;;;;;8.82;2.20;;;;;;;;;;4896287;29;20517;-67
2021/11/29 08:08:01;;;;;;;6.53;2.05;;;;;;;;;;4896525;29;20064;-68
2021/11/29 08:10:33;;;;;;;5.75;1.92;;;;;;;;;;4883503;29;20627;-68
2021/11/29 08:13:07;;;;;;;6.85;2.00;;;;;;;;;;4864989;29;20053;-68
2021/11/29 08:15:38;;;;;;;4.72;2.30;;;;;;;;;;4861922;29;20076;-67
2021/11/29 08:18:10;;;;;;;11.32;2.20;;;;;;;;;;4890213;29;20053;-67
2021/11/29 08:20:40;;;;;;;8.40;2.17;;;;;;;;;;4883548;29;20061;-67
2021/11/29 08:23:11;;;;;;;6.32;2.00;;;;;;;;;;4858628;29;20057;-67
2021/11/29 08:25:42;;;;;;;8.25;2.50;;;;;;;;;;4877142;29;20053;-68
2021/11/29 08:28:13;;;;;;;4.70;2.20;;;;;;;;;;4877175;29;20391;-68
2021/11/29 08:30:44;;;;;;;11.60;2.92;;;;;;;;;;4864576;29;20061;-67
2021/11/29 08:33:15;;;;;;;7.03;2.78;;;;;;;;;;4873561;29;20061;-70
2021/11/29 08:35:47;;;;;;;9.57;2.88;;;;;;;;;;4862254;29;20062;-67
2021/11/29 08:38:19;;;;;;;7.88;2.70;;;;;;;;;;4816260;29;20059;-67
2021/11/29 08:40:49;;;;;;;8.23;2.80;;;;;;;;;;4849161;29;20061;-68
2021/11/29 08:43:20;;;;;;;4.68;1.90;;;;;;;;;;4876651;29;20048;-67
2021/11/29 08:45:51;;;;;;;8.38;2.50;;;;;;;;;;4914059;29;20056;-68
2021/11/29 08:48:24;;;;;;;5.05;1.95;;;;;;;;;;4914503;29;20067;-67
2021/11/29 08:50:56;;;;;;;10.68;2.38;;;;;;;;;;4908514;29;20064;-67
2021/11/29 08:53:28;;;;;;;2.70;1.55;;;;;;;;;;4919102;29;20433;-67
2021/11/29 08:55:59;;;;;;;5.03;1.20;;;;;;;;;;4891640;29;20048;-70
2021/11/29 08:58:29;;;;;;;2.50;1.30;;;;;;;;;;4894988;29;20052;-67
2021/11/29 09:01:00;;;;;;;4.00;1.20;;;;;;;;;;4902087;29;20059;-68
2021/11/29 09:03:32;;;;;;;4.18;1.40;;;;;;;;;;4884901;29;20057;-69
2021/11/29 09:06:04;;;;;;;3.90;1.20;;;;;;;;;;4902548;29;20067;-67
2021/11/29 09:08:35;;;;;;;3.35;0.95;;;;;;;;;;4932796;29;20544;-67
2021/11/29 09:11:05;;;;;;;3.85;0.93;;;;;;;;;;4955328;28;20180;-67
2021/11/29 09:13:45;;;;;;;2.45;1.00;;;;;;;;;;4971945;28;20759;-67
2021/11/29 09:16:17;;;;;;;3.28;1.38;;;;;;;;;;4970902;28;20070;-68
2021/11/29 09:19:22;;;;;;;7.05;1.40;;;;;;;;;;4950466;28;20063;-68
2021/11/29 09:22:00;;;;;;;3.47;1.10;;;;;;;;;;4934197;29;20052;-67
2021/11/29 09:24:34;;;;;;;1.50;0.90;;;;;;;;;;4934138;29;20060;-68
2021/11/29 09:27:08;;;;;;;5.18;1.30;;;;;;;;;;4932767;29;20059;-69
2021/11/29 09:29:38;;;;;;;3.13;1.52;;;;;;;;;;4951464;28;20066;-68
2021/11/29 09:32:08;;;;;;;8.88;1.42;;;;;;;;;;4935584;28;20091;-69
2021/11/29 09:34:39;;;;;;;5.95;2.70;;;;;;;;;;4950959;28;20077;-71
2021/11/29 09:37:10;;;;;;;6.18;2.20;;;;;;;;;;4936405;28;20211;-66
2021/11/29 09:39:40;;;;;;;5.47;2.30;;;;;;;;;;4915482;29;20076;-67
2021/11/29 09:42:11;;;;;;;2.38;1.10;;;;;;;;;;4947732;28;20055;-66
2021/11/29 09:44:42;;;;;;;3.45;1.55;;;;;;;;;;4948046;28;20063;-68
2021/11/29 09:47:13;;;;;;;3.55;1.23;;;;;;;;;;4915502;29;20052;-67
2021/11/29 09:49:44;;;;;;;4.82;1.00;;;;;;;;;;4913065;29;20056;-67
2021/11/29 09:52:14;;;;;;;1.80;0.80;;;;;;;;;;4916331;29;20055;-66
2021/11/29 09:54:44;;;;;;;1.98;0.85;;;;;;;;;;4919804;29;20063;-66
2021/11/29 09:57:15;;;;;;;5.97;1.30;;;;;;;;;;4951211;29;20082;-67
2021/11/29 09:59:46;;;;;;;4.13;1.20;;;;;;;;;;4887131;29;20056;-67
2021/11/29 10:02:17;;;;;;;4.82;1.15;;;;;;;;;;4904535;29;20056;-69
2021/11/29 10:04:49;;;;;;;3.90;1.35;;;;;;;;;;4913160;29;20067;-67
2021/11/29 10:07:36;;;;;;;3.90;1.17;;;;;;;;;;4872037;29;20054;-69
2021/11/29 10:10:16;;;;;;;6.32;1.35;;;;;;;;;;4849572;29;20057;-67
2021/11/29 10:12:49;;;;;;;3.67;1.65;;;;;;;;;;4843557;29;21310;-66
2021/11/29 10:15:41;;;;;;;2.40;1.25;;;;;;;;;;4836628;29;20502;-66
2021/11/29 10:18:16;;;;;;;4.32;1.40;;;;;;;;;;4856907;29;20056;-66
2021/11/29 10:21:00;;;;;;;3.17;0.80;;;;;;;;;;4856803;29;20061;-66
2021/11/29 10:23:32;;;;;;;10.63;1.35;;;;;;;;;;4856552;29;20069;-66
2021/11/29 10:26:18;;;;;;;2.00;1.02;;;;;;;;;;4857332;29;20076;-66
2021/11/29 10:29:00;;;;;;;5.85;1.58;;;;;;;;;;4912866;29;20056;-68
2021/11/29 10:31:39;;;;;;;0.80;0.55;;;;;;;;;;4912958;29;20059;-65
2021/11/29 10:34:13;;;;;;;4.13;0.82;;;;;;;;;;4916597;29;20056;-68
2021/11/29 10:36:49;;;;;;;2.33;0.85;;;;;;;;;;4939406;28;20066;-65
2021/11/29 10:39:32;;;;;;;1.52;0.73;;;;;;;;;;4970048;28;20198;-67
2021/11/29 10:42:14;;;;;;;1.40;0.68;;;;;;;;;;4970181;28;20059;-65
2021/11/29 10:44:46;;;;;;;1.67;0.80;;;;;;;;;;4942999;28;20460;-69
2021/11/29 10:47:18;;;;;;;2.47;0.82;;;;;;;;;;4942833;28;20081;-66
2021/11/29 10:49:54;;;;;;;4.35;0.60;;;;;;;;;;4969776;28;20507;-67
2021/11/29 10:52:28;;;;;;;3.13;0.73;;;;;;;;;;4970005;28;20054;-66
2021/11/29 10:55:00;;;;;;;4.32;0.63;;;;;;;;;;4969730;28;20047;-66
2021/11/29 10:57:31;;;;;;;1.67;0.52;;;;;;;;;;4940258;28;20066;-65
2021/11/29 11:00:07;;;;;;;0.93;0.52;;;;;;;;;;5005118;28;20050;-65
2021/11/29 11:02:38;;;;;;;2.70;0.85;;;;;;;;;;4989297;28;20054;-64
2021/11/29 11:05:12;;;;;;;3.13;0.80;;;;;;;;;;4989794;28;20062;-65
2021/11/29 11:07:45;;;;;;;5.57;0.70;;;;;;;;;;5008852;28;20050;-68
2021/11/29 11:10:15;;;;;;;1.05;0.43;;;;;;;;;;4975793;28;20054;-64
2021/11/29 11:12:58;;;;;;;1.17;0.47;;;;;;;;;;5008771;28;20437;-64
2021/11/29 11:15:31;;;;;;;1.98;0.60;;;;;;;;;;4988652;28;20050;-64
2021/11/29 11:18:03;;;;;;;4.90;0.60;;;;;;;;;;4969259;28;20050;-64
2021/11/29 11:20:33;;;;;;;1.40;0.80;;;;;;;;;;4930489;29;20063;-63
2021/11/29 11:23:04;;;;;;;1.75;0.52;;;;;;;;;;4912393;29;20060;-65
2021/11/29 11:25:42;;;;;;;2.08;0.55;;;;;;;;;;4915894;29;20068;-68
2021/11/29 11:28:12;;;;;;;;;;;;;;;;;;4931620;29;20075;-66
2021/11/29 11:30:43;;;;;;;4.93;0.52;;;;;;;;;;4953848;28;19930;-64
2021/11/29 11:33:20;;;;;;;5.20;0.57;;;;;;;;;;4953870;28;20066;-65
2021/11/29 11:35:53;;;;;;;2.10;0.40;;;;;;;;;;4922241;28;20070;-68
2021/11/29 11:38:25;;;;;;;1.73;0.55;;;;;;;;;;4891462;29;20059;-67
2021/11/29 11:40:59;;;;;;;1.23;0.60;;;;;;;;;;4934259;29;20099;-64
2021/11/29 11:43:29;;;;;;;3.03;0.50;;;;;;;;;;4934742;29;20055;-65
2021/11/29 11:46:00;;;;;;;1.10;0.50;;;;;;;;;;4948807;28;20059;-65
2021/11/29 11:48:32;;;;;;;0.95;0.40;;;;;;;;;;4934108;29;20051;-65
2021/11/29 11:51:03;;;;;;;1.88;0.60;;;;;;;;;;4915303;29;20437;-66
2021/11/29 11:53:33;;;;;;;0.50;0.40;;;;;;;;;;4900081;29;20059;-67
2021/11/29 11:56:06;;;;;;;1.55;0.63;;;;;;;;;;4952823;29;20427;-63
2021/11/29 11:58:47;;;;;;;0.95;0.35;;;;;;;;;;4946621;29;20059;-64
2021/11/29 12:01:19;;;;;;;1.73;0.70;;;;;;;;;;4948575;29;20078;-65
2021/11/29 12:03:50;;;;;;;1.02;0.52;;;;;;;;;;4915228;29;20052;-64
2021/11/29 12:06:33;;;;;;;1.83;0.60;;;;;;;;;;4915268;29;20543;-64
2021/11/29 12:09:08;;;;;;;1.50;0.45;;;;;;;;;;4930816;29;20059;-66
2021/11/29 12:11:51;;;;;;;1.52;0.40;;;;;;;;;;4915603;29;20078;-64
2021/11/29 12:14:31;;;;;;;0.80;0.32;;;;;;;;;;4915142;29;20060;-65
2021/11/29 12:17:21;;;;;;;3.92;0.50;;;;;;;;;;4949299;29;20504;-65
2021/11/29 12:19:51;;;;;;;2.30;0.40;;;;;;;;;;4987848;28;20047;-64
2021/11/29 12:22:24;;;;;;;2.00;0.50;;;;;;;;;;4991819;28;20057;-64
2021/11/29 12:24:57;;;;;;;1.30;0.50;;;;;;;;;;4991907;28;20065;-66
2021/11/29 12:27:44;;;;;;;1.17;0.50;;;;;;;;;;5031240;28;20064;-65
2021/11/29 12:30:36;;;;;;;2.17;0.75;;;;;;;;;;5031200;28;20064;-64
2021/11/29 12:33:11;;;;;;;3.63;0.60;;;;;;;;;;4914357;29;20052;-66
2021/11/29 12:35:53;;;;;;;2.03;0.43;;;;;;;;;;4891480;29;20053;-64
2021/11/29 12:38:24;;;;;;;2.20;0.35;;;;;;;;;;4895943;29;20617;-65
2021/11/29 12:41:06;;;;;;;3.22;0.50;;;;;;;;;;4858523;29;20076;-63
2021/11/29 12:43:45;;;;;;;3.47;0.52;;;;;;;;;;4858681;29;20060;-63
2021/11/29 12:46:36;;;;;;;0.35;0.30;;;;;;;;;;4858071;29;20076;-64
2021/11/29 12:49:08;;;;;;;1.60;0.43;;;;;;;;;;4800242;29;20055;-64
2021/11/29 12:51:54;;;;;;;1.88;0.40;;;;;;;;;;4767558;30;20557;-63
2021/11/29 12:54:39;;;;;;;1.35;0.50;;;;;;;;;;4785490;29;20059;-71
2021/11/29 12:57:38;;;;;;;2.75;0.40;;;;;;;;;;4792003;29;20070;-64
2021/11/29 13:00:21;;;;;;;3.13;0.40;;;;;;;;;;4785202;29;20111;-63
2021/11/29 13:02:57;;;;;;;1.88;0.32;;;;;;;;;;4770278;29;20093;-63
2021/11/29 13:05:29;;;;;;;1.13;0.30;;;;;;;;;;4791538;29;20181;-64
2021/11/29 13:08:23;;;;;;;0.75;0.38;;;;;;;;;;4770426;29;20063;-65
2021/11/29 13:11:05;;;;;;;3.25;0.45;;;;;;;;;;4811021;29;20431;-64
2021/11/29 13:13:41;;;;;;;4.32;0.50;;;;;;;;;;4842951;29;20072;-64
2021/11/29 13:16:23;;;;;;;2.80;0.40;;;;;;;;;;4842869;29;20562;-63
2021/11/29 13:19:07;;;;;;;0.77;0.35;;;;;;;;;;4851071;29;20053;-64
2021/11/29 13:21:40;;;;;;;1.88;0.60;;;;;;;;;;4857986;29;20072;-64
2021/11/29 13:24:26;;;;;;;0.75;0.30;;;;;;;;;;4858194;29;20057;-63
2021/11/29 13:26:56;;;;;;;1.65;0.47;;;;;;;;;;4910060;29;20455;-65
2021/11/29 13:29:28;;;;;;;1.75;0.30;;;;;;;;;;4973348;28;20050;-64
2021/11/29 13:32:04;;;;;;;2.97;0.30;;;;;;;;;;4988806;28;20065;-63
2021/11/29 13:34:41;;;;;;;2.80;0.38;;;;;;;;;;4951659;29;20078;-63
2021/11/29 13:37:16;;;;;;;2.15;0.40;;;;;;;;;;4951826;29;20055;-65
2021/11/29 13:39:49;;;;;;;1.00;0.45;;;;;;;;;;4913801;29;20059;-64
2021/11/29 13:42:27;;;;;;;0.60;0.40;;;;;;;;;;4894735;29;20053;-63
2021/11/29 13:45:19;;;;;;;0.55;0.40;;;;;;;;;;4857184;29;20049;-64
2021/11/29 13:48:01;;;;;;;0.73;0.32;;;;;;;;;;4856862;29;20060;-63
2021/11/29 13:50:34;;;;;;;3.00;0.40;;;;;;;;;;4857541;29;20057;-63
2021/11/29 13:53:11;;;;;;;2.20;0.30;;;;;;;;;;4857595;29;20526;-65
2021/11/29 13:55:57;;;;;;;0.90;0.43;;;;;;;;;;4863086;29;20060;-64
2021/11/29 13:58:30;;;;;;;1.70;0.68;;;;;;;;;;4894702;29;20096;-62
2021/11/29 14:01:18;;;;;;;1.33;0.40;;;;;;;;;;4863511;29;20057;-63
2021/11/29 14:03:49;;;;;;;1.30;0.50;;;;;;;;;;4875409;29;20060;-63
2021/11/29 14:06:21;;;;;;;1.00;0.45;;;;;;;;;;4884676;29;20053;-61
2021/11/29 14:08:52;;;;;;;3.50;0.50;;;;;;;;;;4894000;29;20077;-62
2021/11/29 14:11:24;;;;;;;1.77;0.70;;;;;;;;;;4894423;29;20068;-63
2021/11/29 14:14:01;;;;;;;2.10;0.40;;;;;;;;;;4879080;29;20060;-63
2021/11/29 14:16:43;;;;;;;1.02;0.40;;;;;;;;;;4902301;29;20050;-66
2021/11/29 14:19:15;;;;;;;0.47;0.22;;;;;;;;;;4958181;28;20414;-63
2021/11/29 14:21:49;;;;;;;1.83;0.45;;;;;;;;;;4989790;28;20046;-63
2021/11/29 14:24:27;;;;;;;0.63;0.20;;;;;;;;;;5009036;28;20061;-63
2021/11/29 14:26:59;;;;;;;4.32;0.43;;;;;;;;;;4970114;28;20471;-62
2021/11/29 14:29:34;;;;;;;;;;;;;;;;;;4986371;28;20073;-66
2021/11/29 14:32:22;;;;;;;4.35;0.40;;;;;;;;;;5009280;28;19921;-62
2021/11/29 14:34:58;;;;;;;1.50;0.30;;;;;;;;;;5009355;28;20597;-63
2021/11/29 14:37:34;;;;;;;1.73;0.30;;;;;;;;;;5008780;28;20056;-64
2021/11/29 14:40:14;;;;;;;1.58;0.40;;;;;;;;;;5009125;28;20053;-63
2021/11/29 14:42:51;;;;;;;1.38;0.30;;;;;;;;;;4990045;28;20058;-62
2021/11/29 14:45:30;;;;;;;1.25;0.40;;;;;;;;;;5009966;28;20065;-62
2021/11/29 14:48:00;;;;;;;2.92;0.30;;;;;;;;;;5044856;28;20156;-63
2021/11/29 14:50:36;;;;;;;3.35;0.50;;;;;;;;;;5028634;28;20049;-65
2021/11/29 14:53:16;;;;;;;1.33;0.38;;;;;;;;;;5009597;28;20054;-63
2021/11/29 14:55:51;;;;;;;2.15;0.40;;;;;;;;;;4989062;28;20057;-63
2021/11/29 14:58:26;;;;;;;1.85;0.32;;;;;;;;;;4988989;28;20195;-64
2021/11/29 15:01:02;;;;;;;1.50;0.35;;;;;;;;;;4989227;28;20430;-66
2021/11/29 15:03:41;;;;;;;0.93;0.28;;;;;;;;;;4989327;28;20055;-66
2021/11/29 15:06:28;;;;;;;5.32;0.40;;;;;;;;;;4989015;28;20526;-62
2021/11/29 15:09:07;;;;;;;2.05;0.30;;;;;;;;;;4989501;28;20061;-64
2021/11/29 15:11:47;;;;;;;0.73;0.35;;;;;;;;;;4988752;28;20538;-64
2021/11/29 15:14:20;;;;;;;2.22;0.40;;;;;;;;;;5008302;28;20053;-64
2021/11/29 15:16:52;;;;;;;1.77;0.40;;;;;;;;;;5009071;28;20046;-63
2021/11/29 15:19:41;;;;;;;2.97;0.30;;;;;;;;;;5008892;28;20409;-63
2021/11/29 15:22:29;;;;;;;2.72;0.40;;;;;;;;;;5008877;28;20057;-62
2021/11/29 15:25:05;;;;;;;1.10;0.25;;;;;;;;;;5008661;28;20081;-63